createdAt,value
2018-06-29T00:00:23.412Z,86.51
2018-06-29T00:01:23.384Z,86.41
2018-06-29T00:02:23.348Z,86.69
2018-06-29T00:03:23.338Z,86.60
2018-06-29T00:04:23.295Z,86.41
2018-06-29T00:05:23.261Z,86.79
2018-06-29T00:06:23.228Z,86.51
2018-06-29T00:07:23.191Z,86.69
2018-06-29T00:08:23.178Z,87.27
2018-06-29T00:09:23.137Z,87.27
2018-06-29T00:10:23.169Z,86.89
2018-06-29T00:11:23.076Z,87.27
2018-06-29T00:12:23.037Z,87.46
2018-06-29T00:13:23.009Z,86.22
2018-06-29T00:14:22.972Z,86.46
2018-06-29T00:15:22.940Z,86.27
2018-06-29T00:16:22.953Z,86.18
2018-06-29T00:17:22.881Z,86.27
2018-06-29T00:18:22.884Z,85.98
2018-06-29T00:19:22.819Z,86.36
2018-06-29T00:20:23.035Z,86.36
2018-06-29T00:21:22.754Z,86.46
2018-06-29T00:22:22.725Z,86.18
2018-06-29T00:23:22.697Z,86.46
2018-06-29T00:24:22.663Z,86.56
2018-06-29T00:25:22.631Z,85.98
2018-06-29T00:26:22.594Z,85.88
2018-06-29T00:27:22.561Z,85.69
2018-06-29T00:28:22.542Z,85.55
2018-06-29T00:29:22.503Z,85.27
2018-06-29T00:30:22.469Z,84.98
2018-06-29T00:31:22.440Z,85.36
2018-06-29T00:32:22.447Z,85.27
2018-06-29T00:33:22.413Z,85.36
2018-06-29T00:34:22.347Z,85.65
2018-06-29T00:35:22.337Z,85.78
2018-06-29T00:36:22.282Z,85.36
2018-06-29T00:37:22.251Z,85.65
2018-06-29T00:38:22.214Z,85.65
2018-06-29T00:39:22.186Z,84.88
2018-06-29T00:40:22.154Z,84.88
2018-06-29T00:41:22.158Z,84.50
2018-06-29T00:42:22.115Z,84.50
2018-06-29T00:43:22.068Z,84.69
2018-06-29T00:44:22.025Z,84.69
2018-06-29T00:45:21.996Z,84.69
2018-06-29T00:46:21.960Z,84.50
2018-06-29T00:47:21.928Z,84.50
2018-06-29T00:48:21.902Z,84.30
2018-06-29T00:49:21.893Z,83.92
2018-06-29T00:50:21.834Z,84.11
2018-06-29T00:51:21.810Z,84.21
2018-06-29T00:52:21.918Z,84.11
2018-06-29T00:53:21.738Z,83.44
2018-06-29T00:54:21.706Z,83.73
2018-06-29T00:55:21.722Z,83.53
2018-06-29T00:56:21.688Z,82.43
2018-06-29T00:57:21.610Z,82.76
2018-06-29T00:58:21.582Z,81.90
2018-06-29T00:59:21.545Z,81.48
2018-06-29T01:00:21.517Z,81.76
2018-06-29T01:01:21.605Z,81.28
2018-06-29T01:02:21.497Z,81.48
2018-06-29T01:03:21.429Z,80.71
2018-06-29T01:04:21.383Z,80.90
2018-06-29T01:05:21.353Z,80.61
2018-06-29T01:06:21.322Z,80.51
2018-06-29T01:07:21.334Z,80.22
2018-06-29T01:08:21.263Z,80.13
2018-06-29T01:09:21.228Z,80.32
2018-06-29T01:10:21.196Z,80.90
2018-06-29T01:11:21.239Z,80.13
2018-06-29T01:12:21.150Z,79.55
2018-06-29T01:13:21.116Z,79.94
2018-06-29T01:14:21.067Z,79.36
2018-06-29T01:15:21.049Z,78.59
2018-06-29T01:16:21.078Z,78.11
2018-06-29T01:17:20.976Z,78.50
2018-06-29T01:18:20.938Z,78.02
2018-06-29T01:19:20.906Z,78.02
2018-06-29T01:20:20.884Z,77.15
2018-06-29T01:21:20.842Z,78.11
2018-06-29T01:22:20.808Z,77.63
2018-06-29T01:23:20.783Z,77.83
2018-06-29T01:24:20.738Z,77.06
2018-06-29T01:25:20.711Z,76.77
2018-06-29T01:26:20.808Z,76.48
2018-06-29T01:27:20.651Z,76.19
2018-06-29T01:28:20.613Z,76.29
2018-06-29T01:29:20.583Z,75.23
2018-06-29T01:30:20.583Z,74.46
2018-06-29T01:31:20.517Z,73.85
2018-06-29T01:32:20.492Z,73.27
2018-06-29T01:33:20.461Z,72.89
2018-06-29T01:34:20.495Z,72.89
2018-06-29T01:35:20.395Z,72.50
2018-06-29T01:36:20.356Z,71.55
2018-06-29T01:37:20.332Z,71.25
2018-06-29T01:38:20.291Z,71.73
2018-06-29T01:39:20.256Z,71.45
2018-06-29T01:40:20.233Z,71.25
2018-06-29T01:41:20.199Z,71.25
2018-06-29T01:42:20.163Z,71.55
2018-06-29T01:43:20.131Z,71.35
2018-06-29T01:44:20.109Z,70.29
2018-06-29T01:45:20.186Z,69.43
2018-06-29T01:46:20.035Z,70.10
2018-06-29T01:47:20.008Z,69.05
2018-06-29T01:48:19.968Z,68.37
2018-06-29T01:49:19.937Z,67.80
2018-06-29T01:50:19.902Z,67.61
2018-06-29T01:51:19.872Z,66.64
2018-06-29T01:52:19.855Z,65.97
2018-06-29T01:53:19.813Z,65.56
2018-06-29T01:54:19.775Z,65.65
2018-06-29T01:55:19.749Z,65.30
2018-06-29T01:56:19.708Z,65.78
2018-06-29T01:57:19.676Z,65.78
2018-06-29T01:58:19.648Z,65.11
2018-06-29T01:59:19.615Z,64.82
2018-06-29T02:00:19.673Z,63.92
2018-06-29T02:01:19.557Z,63.92
2018-06-29T02:02:19.516Z,63.64
2018-06-29T02:03:19.480Z,62.87
2018-06-29T02:04:19.457Z,62.19
2018-06-29T02:05:19.433Z,62.87
2018-06-29T02:06:19.388Z,63.67
2018-06-29T02:07:19.359Z,63.35
2018-06-29T02:08:19.318Z,62.39
2018-06-29T02:09:19.292Z,62.29
2018-06-29T02:10:19.290Z,61.72
2018-06-29T02:11:19.225Z,62.39
2018-06-29T02:12:19.200Z,62.48
2018-06-29T02:13:19.160Z,62.77
2018-06-29T02:14:20.730Z,62.81
2018-06-29T02:15:19.091Z,62.99
2018-06-29T02:16:19.070Z,63.67
2018-06-29T02:17:19.032Z,63.28
2018-06-29T02:18:18.996Z,62.39
2018-06-29T02:19:19.025Z,62.87
2018-06-29T02:20:18.925Z,61.75
2018-06-29T02:21:18.897Z,62.71
2018-06-29T02:22:18.865Z,62.71
2018-06-29T02:23:18.830Z,62.90
2018-06-29T02:24:18.855Z,62.32
2018-06-29T02:25:18.821Z,62.42
2018-06-29T02:26:18.736Z,62.04
2018-06-29T02:27:18.759Z,62.01
2018-06-29T02:28:18.675Z,62.90
2018-06-29T02:29:18.660Z,61.62
2018-06-29T02:30:18.606Z,61.33
2018-06-29T02:31:18.580Z,60.75
2018-06-29T02:32:18.580Z,61.05
2018-06-29T02:33:18.529Z,61.05
2018-06-29T02:34:18.480Z,59.70
2018-06-29T02:35:18.440Z,59.70
2018-06-29T02:36:18.419Z,59.70
2018-06-29T02:37:18.379Z,60.18
2018-06-29T02:38:18.347Z,60.95
2018-06-29T02:39:18.316Z,60.75
2018-06-29T02:40:18.294Z,61.36
2018-06-29T02:41:18.249Z,60.50
2018-06-29T02:42:18.213Z,60.38
2018-06-29T02:43:18.260Z,59.51
2018-06-29T02:44:18.163Z,59.70
2018-06-29T02:45:18.118Z,59.03
2018-06-29T02:46:18.082Z,58.36
2018-06-29T02:47:18.049Z,58.74
2018-06-29T02:48:18.021Z,58.94
2018-06-29T02:49:17.988Z,58.45
2018-06-29T02:50:17.965Z,58.07
2018-06-29T02:51:17.931Z,57.50
2018-06-29T02:52:17.886Z,57.40
2018-06-29T02:53:17.867Z,55.96
2018-06-29T02:54:17.823Z,55.96
2018-06-29T02:55:17.825Z,55.96
2018-06-29T02:56:17.764Z,55.00
2018-06-29T02:57:17.736Z,55.29
2018-06-29T02:58:17.744Z,54.52
2018-06-29T02:59:17.664Z,54.33
2018-06-29T03:00:17.625Z,54.23
2018-06-29T03:01:17.639Z,54.71
2018-06-29T03:02:17.608Z,54.71
2018-06-29T03:03:17.608Z,53.17
2018-06-29T03:04:17.492Z,53.75
2018-06-29T03:05:17.519Z,53.08
2018-06-29T03:06:17.472Z,51.83
2018-06-29T03:07:17.395Z,52.22
2018-06-29T03:08:17.366Z,50.56
2018-06-29T03:09:17.338Z,49.41
2018-06-29T03:10:17.308Z,48.07
2018-06-29T03:11:17.271Z,47.68
2018-06-29T03:12:17.233Z,48.16
2018-06-29T03:13:17.213Z,48.64
2018-06-29T03:14:17.170Z,48.28
2018-06-29T03:15:17.131Z,49.21
2018-06-29T03:16:17.106Z,49.02
2018-06-29T03:17:17.070Z,48.95
2018-06-29T03:18:17.073Z,49.31
2018-06-29T03:19:17.001Z,49.24
2018-06-29T03:20:16.975Z,49.24
2018-06-29T03:21:16.936Z,49.72
2018-06-29T03:22:16.934Z,49.91
2018-06-29T03:23:16.876Z,51.45
2018-06-29T03:24:16.849Z,51.54
2018-06-29T03:25:16.822Z,52.12
2018-06-29T03:26:16.772Z,51.73
2018-06-29T03:27:16.740Z,52.12
2018-06-29T03:28:16.708Z,51.45
2018-06-29T03:29:16.681Z,51.64
2018-06-29T03:30:16.647Z,51.64
2018-06-29T03:31:16.617Z,50.68
2018-06-29T03:32:16.577Z,50.01
2018-06-29T03:33:16.546Z,49.24
2018-06-29T03:34:16.543Z,48.85
2018-06-29T03:35:16.478Z,48.47
2018-06-29T03:36:16.450Z,47.03
2018-06-29T03:37:16.412Z,45.76
2018-06-29T03:38:16.375Z,45.57
2018-06-29T03:39:16.356Z,44.90
2018-06-29T03:40:16.356Z,45.67
2018-06-29T03:41:16.284Z,45.37
2018-06-29T03:42:16.260Z,45.98
2018-06-29T03:43:16.217Z,46.14
2018-06-29T03:44:16.180Z,45.18
2018-06-29T03:45:16.149Z,45.88
2018-06-29T03:46:16.116Z,46.45
2018-06-29T03:47:16.083Z,45.98
2018-06-29T03:48:16.050Z,45.09
2018-06-29T03:49:16.019Z,45.01
2018-06-29T03:50:15.983Z,45.78
2018-06-29T03:51:15.947Z,46.17
2018-06-29T04:08:27.478Z,53.39
2018-06-29T04:09:27.412Z,53.39
2018-06-29T04:10:27.379Z,54.35
2018-06-29T04:11:27.383Z,55.12
2018-06-29T04:12:27.300Z,55.12
2018-06-29T04:13:27.270Z,55.12
2018-06-29T04:14:27.224Z,55.60
2018-06-29T04:15:27.217Z,54.93
2018-06-29T04:16:27.157Z,55.02
2018-06-29T04:17:27.121Z,55.69
2018-06-29T04:18:27.090Z,55.99
2018-06-29T04:19:27.063Z,53.78
2018-06-29T04:20:27.018Z,53.49
2018-06-29T04:21:26.985Z,54.35
2018-06-29T04:22:26.951Z,55.15
2018-06-29T04:23:26.917Z,53.97
2018-06-29T04:24:26.881Z,54.67
2018-06-29T04:25:26.856Z,54.35
2018-06-29T04:26:26.823Z,54.45
2018-06-29T04:27:26.778Z,54.25
2018-06-29T04:28:26.768Z,54.25
2018-06-29T04:29:26.716Z,53.97
2018-06-29T04:30:26.690Z,52.72
2018-06-29T04:31:26.647Z,52.24
2018-06-29T04:32:26.618Z,52.05
2018-06-29T04:33:26.574Z,52.81
2018-06-29T04:34:26.547Z,53.68
2018-06-29T04:35:26.540Z,52.62
2018-06-29T04:36:26.482Z,51.86
2018-06-29T04:37:26.545Z,52.72
2018-06-29T04:38:26.414Z,53.01
2018-06-29T04:39:26.385Z,51.86
2018-06-29T04:40:26.349Z,51.67
2018-06-29T04:41:26.314Z,51.37
2018-06-29T04:42:26.285Z,51.18
2018-06-29T04:43:26.279Z,51.50
2018-06-29T04:44:26.251Z,52.26
2018-06-29T04:45:26.185Z,52.46
2018-06-29T04:46:26.147Z,51.67
2018-06-29T04:47:26.119Z,52.46
2018-06-29T04:48:26.112Z,50.51
2018-06-29T04:49:26.147Z,49.93
2018-06-29T04:50:26.040Z,50.23
2018-06-29T04:51:25.996Z,49.07
2018-06-29T04:52:25.977Z,49.84
2018-06-29T04:53:25.941Z,49.07
2018-06-29T04:54:25.891Z,49.65
2018-06-29T04:55:25.862Z,49.38
2018-06-29T04:56:25.824Z,50.44
2018-06-29T04:57:25.793Z,49.19
2018-06-29T04:58:25.779Z,48.43
2018-06-29T04:59:25.723Z,48.40
2018-06-29T05:00:25.724Z,48.02
2018-06-29T05:01:25.656Z,48.40
2018-06-29T05:02:25.638Z,50.44
2018-06-29T05:03:25.601Z,48.33
2018-06-29T05:04:25.564Z,48.71
2018-06-29T05:05:25.528Z,47.34
2018-06-29T05:06:25.503Z,46.12
2018-06-29T05:07:25.467Z,47.66
2018-06-29T05:08:25.452Z,48.33
2018-06-29T05:09:25.418Z,48.90
2018-06-29T05:10:25.364Z,50.63
2018-06-29T05:11:25.334Z,51.31
2018-06-29T05:12:25.301Z,51.40
2018-06-29T05:13:25.332Z,49.87
2018-06-29T05:14:25.242Z,51.40
2018-06-29T05:15:25.267Z,50.54
2018-06-29T05:16:25.177Z,51.11
2018-06-29T05:17:25.144Z,52.08
2018-06-29T05:18:25.111Z,54.31
2018-06-29T05:19:25.102Z,55.37
2018-06-29T05:20:25.046Z,54.31
2018-06-29T05:21:25.015Z,56.71
2018-06-29T05:22:24.981Z,55.18
2018-06-29T05:23:24.951Z,56.71
2018-06-29T05:24:24.919Z,55.94
2018-06-29T05:25:24.882Z,55.94
2018-06-29T05:26:24.883Z,56.62
2018-06-29T05:27:24.862Z,56.04
2018-06-29T05:28:24.787Z,55.76
2018-06-29T05:29:24.760Z,57.58
2018-06-29T05:30:24.724Z,56.43
2018-06-29T05:31:24.695Z,57.48
2018-06-29T05:32:24.660Z,56.91
2018-06-29T05:33:24.624Z,57.70
2018-06-29T05:34:25.565Z,57.99
2018-06-29T05:35:24.573Z,59.34
2018-06-29T05:36:24.534Z,60.78
2018-06-29T05:37:24.499Z,59.63
2018-06-29T05:38:24.613Z,61.55
2018-06-29T05:39:24.444Z,62.03
2018-06-29T05:40:24.406Z,60.21
2018-06-29T05:41:24.436Z,60.49
2018-06-29T05:42:24.348Z,61.77
2018-06-29T05:43:24.309Z,65.43
2018-06-29T05:44:24.294Z,63.89
2018-06-29T05:45:24.245Z,65.11
2018-06-29T05:46:24.237Z,64.86
2018-06-29T05:47:24.188Z,63.51
2018-06-29T05:48:24.166Z,64.15
2018-06-29T05:49:24.128Z,64.47
2018-06-29T05:50:24.085Z,65.43
2018-06-29T05:51:24.060Z,65.24
2018-06-29T05:52:24.030Z,65.63
2018-06-29T05:53:23.998Z,66.88
2018-06-29T05:54:23.960Z,68.80
2018-06-29T05:55:23.937Z,69.31
2018-06-29T05:56:23.900Z,68.32
2018-06-29T05:57:23.870Z,65.43
2018-06-29T05:58:23.842Z,66.97
2018-06-29T05:59:23.805Z,65.05
2018-06-29T06:00:23.780Z,66.42
2018-06-29T06:01:23.750Z,66.88
2018-06-29T06:02:23.712Z,66.14
2018-06-29T06:03:23.702Z,67.29
2018-06-29T06:04:23.650Z,67.39
2018-06-29T06:05:23.638Z,67.97
2018-06-29T06:06:23.590Z,68.35
2018-06-29T06:07:23.565Z,67.68
2018-06-29T06:08:23.523Z,66.33
2018-06-29T06:09:23.498Z,66.01
2018-06-29T06:10:23.473Z,63.79
2018-06-29T06:11:23.438Z,63.12
2018-06-29T06:12:23.404Z,62.96
2018-06-29T06:13:23.401Z,64.21
2018-06-29T06:14:23.348Z,64.47
2018-06-29T06:15:23.307Z,64.98
2018-06-29T06:16:23.276Z,63.54
2018-06-29T06:17:23.249Z,64.79
2018-06-29T06:18:23.220Z,65.46
2018-06-29T06:19:23.185Z,66.07
2018-06-29T06:20:23.154Z,69.54
2018-06-29T06:21:23.128Z,67.81
2018-06-29T06:22:23.091Z,69.06
2018-06-29T06:23:23.060Z,69.35
2018-06-29T06:24:23.061Z,70.89
2018-06-29T06:25:23.005Z,71.08
2018-06-29T06:26:22.971Z,70.79
2018-06-29T06:27:22.976Z,70.12
2018-06-29T06:28:22.907Z,69.45
2018-06-29T06:29:22.877Z,71.66
2018-06-29T06:30:22.852Z,68.16
2018-06-29T06:31:22.821Z,68.16
2018-06-29T06:32:22.813Z,69.79
2018-06-29T06:33:22.761Z,69.45
2018-06-29T06:34:22.721Z,69.15
2018-06-29T06:35:22.691Z,69.45
2018-06-29T06:36:22.672Z,70.21
2018-06-29T06:37:22.654Z,71.76
2018-06-29T06:38:22.603Z,73.97
2018-06-29T06:39:22.572Z,72.47
2018-06-29T06:40:22.538Z,73.91
2018-06-29T06:41:22.519Z,76.90
2018-06-29T06:42:22.489Z,75.93
2018-06-29T06:43:22.450Z,76.80
2018-06-29T06:44:22.445Z,79.11
2018-06-29T06:45:22.407Z,77.09
2018-06-29T06:46:22.354Z,78.34
2018-06-29T06:47:22.328Z,75.74
2018-06-29T06:48:22.302Z,75.45
2018-06-29T06:49:22.263Z,74.01
2018-06-29T06:50:22.236Z,75.84
2018-06-29T06:51:22.206Z,77.38
2018-06-29T06:52:22.175Z,76.32
2018-06-29T06:53:22.146Z,76.32
2018-06-29T06:54:22.149Z,76.90
2018-06-29T06:55:22.083Z,76.86
2018-06-29T06:56:22.052Z,75.32
2018-06-29T06:57:22.025Z,76.18
2018-06-29T06:58:21.989Z,76.03
2018-06-29T06:59:21.999Z,75.36
2018-06-29T07:00:21.928Z,73.33
2018-06-29T07:01:21.896Z,75.36
2018-06-29T07:02:21.870Z,75.55
2018-06-29T07:03:21.841Z,75.36
2018-06-29T07:04:21.808Z,74.30
2018-06-29T07:05:21.782Z,75.84
2018-06-29T07:06:21.745Z,76.23
2018-06-29T07:07:21.740Z,75.90
2018-06-29T07:08:21.690Z,76.09
2018-06-29T07:09:21.655Z,75.03
2018-06-29T07:10:21.637Z,75.03
2018-06-29T07:11:21.595Z,75.51
2018-06-29T07:12:21.566Z,74.07
2018-06-29T07:13:21.533Z,76.28
2018-06-29T07:14:21.535Z,74.07
2018-06-29T07:15:21.477Z,74.26
2018-06-29T07:16:21.447Z,74.36
2018-06-29T07:17:21.426Z,72.53
2018-06-29T07:18:21.421Z,75.65
2018-06-29T07:19:21.352Z,74.40
2018-06-29T07:20:21.323Z,76.13
2018-06-29T07:21:21.294Z,76.71
2018-06-29T07:22:21.266Z,76.80
2018-06-29T07:23:21.236Z,79.79
2018-06-29T07:24:21.204Z,80.46
2018-06-29T07:25:21.183Z,77.96
2018-06-29T07:26:21.143Z,76.80
2018-06-29T07:27:21.111Z,77.86
2018-06-29T07:28:21.081Z,76.65
2018-06-29T07:29:21.052Z,78.58
2018-06-29T07:30:21.022Z,78.67
2018-06-29T07:31:20.993Z,77.00
2018-06-29T07:32:20.961Z,77.23
2018-06-29T07:33:20.928Z,77.33
2018-06-29T07:34:20.903Z,79.06
2018-06-29T07:35:20.892Z,79.29
2018-06-29T07:36:20.842Z,80.79
2018-06-29T07:37:20.841Z,80.69
2018-06-29T07:38:20.782Z,79.10
2018-06-29T07:39:20.758Z,80.16
2018-06-29T07:40:20.721Z,81.32
2018-06-29T07:41:20.685Z,80.74
2018-06-29T07:42:20.666Z,82.57
2018-06-29T07:43:20.633Z,80.93
2018-06-29T07:44:20.599Z,83.15
2018-06-29T07:45:20.625Z,81.90
2018-06-29T07:46:20.547Z,83.92
2018-06-29T07:47:20.512Z,83.53
2018-06-29T07:48:20.483Z,84.21
2018-06-29T07:49:20.466Z,83.50
2018-06-29T07:50:20.440Z,82.62
2018-06-29T07:51:20.396Z,83.59
2018-06-29T07:52:20.356Z,81.57
2018-06-29T07:53:20.332Z,82.34
2018-06-29T07:54:20.311Z,81.90
2018-06-29T07:55:20.274Z,83.15
2018-06-29T07:56:20.384Z,83.53
2018-06-29T07:57:20.212Z,84.41
2018-06-29T07:58:20.268Z,84.01
2018-06-29T07:59:20.152Z,84.79
2018-06-29T08:00:20.124Z,86.39
2018-06-29T08:01:20.098Z,84.59
2018-06-29T08:02:20.065Z,82.38
2018-06-29T08:03:20.031Z,84.50
2018-06-29T08:04:20.004Z,85.46
2018-06-29T08:05:19.976Z,83.69
2018-06-29T08:06:19.945Z,84.41
2018-06-29T08:07:19.917Z,83.25
2018-06-29T08:08:19.896Z,85.56
2018-06-29T08:09:19.858Z,83.73
2018-06-29T08:10:19.872Z,82.57
2018-06-29T08:11:19.795Z,81.60
2018-06-29T08:12:19.765Z,81.51
2018-06-29T08:13:19.745Z,81.70
2018-06-29T08:14:19.713Z,82.67
2018-06-29T08:15:19.680Z,82.90
2018-06-29T08:16:19.647Z,83.29
2018-06-29T08:17:19.616Z,84.74
2018-06-29T08:18:19.588Z,82.81
2018-06-29T08:19:19.560Z,86.38
2018-06-29T08:20:19.549Z,84.74
2018-06-29T08:21:19.499Z,86.47
2018-06-29T08:22:19.467Z,84.44
2018-06-29T08:23:19.437Z,84.93
2018-06-29T08:24:19.425Z,85.31
2018-06-29T08:25:19.378Z,86.18
2018-06-29T08:26:19.355Z,83.77
2018-06-29T08:27:19.329Z,84.93
2018-06-29T08:28:19.292Z,84.83
2018-06-29T08:29:19.262Z,83.48
2018-06-29T08:30:19.244Z,85.70
2018-06-29T08:31:19.203Z,85.02
2018-06-29T08:32:19.180Z,85.31
2018-06-29T08:33:19.141Z,86.38
2018-06-29T08:34:19.111Z,87.53
2018-06-29T08:35:19.078Z,87.15
2018-06-29T08:36:19.056Z,87.82
2018-06-29T08:37:19.023Z,88.02
2018-06-29T08:38:18.995Z,87.63
2018-06-29T08:39:18.971Z,89.07
2018-06-29T08:40:18.950Z,89.47
2018-06-29T08:41:18.910Z,89.95
2018-06-29T08:42:18.876Z,88.69
2018-06-29T08:43:18.851Z,89.47
2018-06-29T08:44:18.821Z,88.11
2018-06-29T08:45:18.788Z,88.59
2018-06-29T08:46:18.759Z,88.02
2018-06-29T08:47:18.730Z,88.11
2018-06-29T08:48:18.699Z,88.89
2018-06-29T08:49:18.664Z,86.22
2018-06-29T08:50:18.648Z,87.48
2018-06-29T08:51:18.612Z,88.93
2018-06-29T08:52:18.658Z,86.80
2018-06-29T08:53:18.591Z,87.58
2018-06-29T08:54:18.524Z,88.73
2018-06-29T08:55:18.489Z,87.38
2018-06-29T08:56:18.457Z,86.80
2018-06-29T08:57:18.433Z,87.43
2018-06-29T08:58:18.406Z,87.13
2018-06-29T08:59:18.374Z,88.78
2018-06-29T09:00:18.348Z,87.71
2018-06-29T09:01:18.314Z,89.65
2018-06-29T09:02:18.289Z,87.81
2018-06-29T09:03:18.251Z,88.10
2018-06-29T09:04:18.244Z,89.84
2018-06-29T09:05:18.196Z,89.75
2018-06-29T09:06:18.168Z,88.68
2018-06-29T09:07:18.163Z,87.33
2018-06-29T09:08:18.136Z,88.49
2018-06-29T09:09:18.084Z,88.39
2018-06-29T09:10:18.055Z,88.78
2018-06-29T09:11:18.024Z,88.10
2018-06-29T09:12:18.002Z,89.36
2018-06-29T09:13:17.966Z,88.01
2018-06-29T09:14:17.935Z,89.45
2018-06-29T09:15:17.897Z,89.65
2018-06-29T09:16:17.873Z,88.10
2018-06-29T09:17:17.860Z,89.45
2018-06-29T09:18:17.819Z,87.57
2018-06-29T09:19:17.788Z,89.55
2018-06-29T09:20:17.753Z,87.57
2018-06-29T09:21:17.732Z,88.92
2018-06-29T09:22:17.748Z,90.37
2018-06-29T09:23:17.673Z,88.53
2018-06-29T09:24:17.679Z,88.05
2018-06-29T09:25:17.617Z,89.50
2018-06-29T09:26:17.590Z,88.43
2018-06-29T09:27:17.547Z,88.63
2018-06-29T09:28:17.564Z,89.64
2018-06-29T09:29:17.491Z,89.45
2018-06-29T09:30:17.526Z,89.06
2018-06-29T09:31:17.459Z,89.21
2018-06-29T09:32:17.407Z,89.74
2018-06-29T09:33:17.412Z,88.48
2018-06-29T09:34:17.389Z,89.93
2018-06-29T09:35:17.315Z,89.45
2018-06-29T09:36:17.325Z,89.25
2018-06-29T09:37:17.261Z,87.81
2018-06-29T09:38:17.239Z,90.90
2018-06-29T09:39:17.200Z,89.74
2018-06-29T09:40:17.188Z,89.59
2018-06-29T09:41:17.141Z,89.29
2018-06-29T09:42:17.116Z,89.49
2018-06-29T09:43:17.089Z,89.88
2018-06-29T09:44:17.056Z,90.26
2018-06-29T09:45:17.234Z,88.23
2018-06-29T09:46:17.001Z,89.69
2018-06-29T09:47:16.979Z,89.59
2018-06-29T09:48:16.937Z,90.56
2018-06-29T09:49:16.910Z,89.29
2018-06-29T09:50:16.883Z,89.29
2018-06-29T09:51:16.860Z,89.49
2018-06-29T09:52:16.820Z,89.15
2018-06-29T09:53:16.797Z,89.39
2018-06-29T09:54:16.768Z,89.49
2018-06-29T09:55:16.758Z,90.22
2018-06-29T09:56:16.719Z,89.59
2018-06-29T09:57:16.685Z,88.91
2018-06-29T09:58:16.649Z,89.49
2018-06-29T09:59:16.645Z,89.39
2018-06-29T10:00:16.589Z,89.29
2018-06-29T10:01:16.636Z,89.39
2018-06-29T10:02:16.538Z,88.71
2018-06-29T10:03:16.544Z,88.81
2018-06-29T10:04:16.512Z,89.44
2018-06-29T10:05:16.478Z,87.60
2018-06-29T10:06:16.427Z,87.89
2018-06-29T10:07:16.393Z,88.04
2018-06-29T10:08:16.372Z,87.85
2018-06-29T10:21:31.614Z,86.44
2018-06-29T10:22:31.555Z,85.80
2018-06-29T10:23:31.494Z,85.03
2018-06-29T10:24:31.462Z,82.18
2018-06-29T10:25:31.445Z,82.47
2018-06-29T10:26:31.382Z,81.50
2018-06-29T10:27:31.379Z,82.18
2018-06-29T10:28:31.318Z,82.95
2018-06-29T10:29:31.289Z,82.76
2018-06-29T10:30:31.265Z,81.70
2018-06-29T10:31:31.237Z,80.54
2018-06-29T10:32:31.213Z,82.22
2018-06-29T10:33:31.181Z,82.03
2018-06-29T10:34:31.138Z,83.62
2018-06-29T10:35:31.110Z,84.00
2018-06-29T10:36:31.086Z,82.84
2018-06-29T10:37:31.054Z,81.48
2018-06-29T10:38:31.027Z,79.06
2018-06-29T10:39:30.988Z,76.31
2018-06-29T10:40:30.963Z,76.51
2018-06-29T10:41:30.993Z,77.28
2018-06-29T10:42:30.909Z,76.02
2018-06-29T10:43:30.877Z,77.37
2018-06-29T10:44:30.853Z,75.73
2018-06-29T10:45:30.818Z,77.37
2018-06-29T10:46:30.796Z,77.42
2018-06-29T10:47:30.757Z,75.44
2018-06-29T10:48:30.730Z,74.60
2018-06-29T10:49:30.702Z,74.66
2018-06-29T10:50:30.706Z,75.19
2018-06-29T10:51:30.670Z,75.63
2018-06-29T10:52:30.616Z,74.90
2018-06-29T10:53:30.598Z,73.99
2018-06-29T10:54:30.559Z,74.41
2018-06-29T10:55:30.537Z,74.12
2018-06-29T10:56:30.517Z,73.83
2018-06-29T10:57:30.478Z,72.77
2018-06-29T10:58:30.475Z,72.09
2018-06-29T10:59:30.421Z,71.60
2018-06-29T11:00:30.392Z,71.60
2018-06-29T11:01:30.364Z,74.12
2018-06-29T11:02:30.344Z,74.22
2018-06-29T11:03:30.301Z,70.54
2018-06-29T11:04:30.289Z,71.22
2018-06-29T11:05:30.346Z,68.21
2018-06-29T11:06:30.218Z,68.82
2018-06-29T11:07:30.194Z,68.05
2018-06-29T11:08:30.164Z,66.69
2018-06-29T11:09:30.152Z,66.99
2018-06-29T11:10:30.136Z,67.24
2018-06-29T11:11:30.077Z,68.15
2018-06-29T11:12:30.062Z,69.12
2018-06-29T11:13:30.025Z,66.69
2018-06-29T11:14:39.064Z,67.37
2018-06-29T11:16:23.355Z,67.76
2018-06-29T11:17:23.296Z,65.92
2018-06-29T11:18:23.271Z,63.20
2018-06-29T11:19:23.244Z,63.01
2018-06-29T11:20:23.219Z,65.63
2018-06-29T11:21:32.335Z,65.05
2018-06-29T11:23:16.545Z,64.37
2018-06-29T11:24:16.507Z,63.49
2018-06-29T11:25:16.454Z,63.98
2018-06-29T11:26:16.445Z,63.98
2018-06-29T11:27:16.408Z,65.63
2018-06-29T11:28:24.119Z,66.20
2018-06-29T11:29:16.340Z,64.20
2018-06-29T11:30:16.379Z,63.43
2018-06-29T11:31:16.347Z,63.91
2018-06-29T11:32:16.283Z,61.07
2018-06-29T11:33:16.264Z,61.55
2018-06-29T11:34:16.229Z,60.78
2018-06-29T11:35:16.173Z,61.65
2018-06-29T11:36:16.148Z,62.23
2018-06-29T11:37:16.121Z,63.49
2018-06-29T11:38:16.092Z,65.37
2018-06-29T11:39:16.089Z,62.26
2018-06-29T11:40:16.029Z,61.68
2018-06-29T11:41:16.008Z,61.00
2018-06-29T11:42:15.977Z,60.68
2018-06-29T11:43:15.949Z,61.19
2018-06-29T11:44:15.946Z,60.42
2018-06-29T11:45:15.897Z,60.71
2018-06-29T11:46:15.868Z,60.84
2018-06-29T11:47:15.849Z,61.13
2018-06-29T11:48:15.811Z,59.87
2018-06-29T11:49:15.789Z,62.81
2018-06-29T11:50:15.771Z,60.74
2018-06-29T11:51:15.737Z,60.94
2018-06-29T11:52:15.698Z,59.38
2018-06-29T11:53:15.673Z,58.22
2018-06-29T11:54:15.649Z,58.90
2018-06-29T11:55:15.624Z,57.83
2018-06-29T11:56:15.598Z,59.28
2018-06-29T11:57:15.571Z,56.25
2018-06-29T11:58:15.535Z,57.61
2018-06-29T11:59:15.530Z,57.70
2018-06-29T12:00:15.478Z,57.12
2018-06-29T12:01:15.454Z,56.45
2018-06-29T12:02:15.421Z,57.61
2018-06-29T12:03:15.391Z,56.64
2018-06-29T12:04:15.391Z,56.96
2018-06-29T12:05:15.346Z,57.83
2018-06-29T12:06:15.328Z,56.45
2018-06-29T12:07:15.298Z,56.54
2018-06-29T12:08:15.258Z,57.51
2018-06-29T12:09:15.238Z,56.35
2018-06-29T12:10:15.208Z,56.93
2018-06-29T12:11:15.180Z,56.35
2018-06-29T12:12:15.141Z,57.44
2018-06-29T12:13:15.117Z,55.50
2018-06-29T12:14:15.119Z,56.37
2018-06-29T12:15:15.065Z,56.86
2018-06-29T12:16:15.040Z,57.64
2018-06-29T12:17:15.010Z,57.64
2018-06-29T12:18:14.981Z,54.44
2018-06-29T12:19:14.958Z,53.47
2018-06-29T12:20:14.922Z,56.37
2018-06-29T12:21:14.901Z,56.47
2018-06-29T12:22:14.881Z,56.18
2018-06-29T12:23:14.889Z,55.99
2018-06-29T12:24:14.820Z,55.31
2018-06-29T12:25:14.791Z,56.09
2018-06-29T12:26:14.760Z,54.82
2018-06-29T12:27:14.900Z,55.21
2018-06-29T12:28:14.712Z,54.44
2018-06-29T12:29:14.693Z,54.36
2018-06-29T12:30:14.652Z,52.62
2018-06-29T12:31:14.640Z,52.13
2018-06-29T12:32:14.597Z,53.37
2018-06-29T12:33:14.567Z,53.20
2018-06-29T12:34:14.540Z,53.49
2018-06-29T12:35:14.520Z,53.10
2018-06-29T12:36:14.487Z,53.17
2018-06-29T12:37:14.459Z,53.27
2018-06-29T12:38:14.429Z,54.75
2018-06-29T12:39:14.419Z,52.23
2018-06-29T12:40:14.391Z,52.33
2018-06-29T12:41:14.376Z,52.23
2018-06-29T12:42:16.160Z,53.10
2018-06-29T12:43:14.297Z,51.75
2018-06-29T12:44:14.267Z,53.20
2018-06-29T12:45:14.238Z,54.46
2018-06-29T12:46:22.843Z,52.23
2018-06-29T12:48:16.922Z,53.10
2018-06-29T12:50:30.412Z,51.55
2018-06-29T12:51:29.828Z,51.55
2018-06-29T12:52:29.744Z,51.35
2018-06-29T12:53:38.374Z,51.65
2018-06-29T12:55:23.072Z,52.42
2018-06-29T12:56:22.996Z,51.35
2018-06-29T12:57:22.917Z,50.89
2018-06-29T12:58:22.888Z,50.99
2018-06-29T16:05:30.573Z,45.09
2018-06-29T16:06:30.510Z,45.21
2018-06-29T16:07:30.474Z,45.18
2018-06-29T16:08:30.446Z,45.11
2018-06-29T16:09:30.416Z,45.21
2018-06-29T16:10:30.387Z,45.21
2018-06-29T16:11:30.361Z,44.62
2018-06-29T16:12:30.330Z,45.21
2018-06-29T16:13:30.296Z,44.62
2018-06-29T16:14:30.264Z,44.53
2018-06-29T16:15:30.243Z,44.82
2018-06-29T16:16:30.216Z,45.40
2018-06-29T16:17:30.185Z,45.31
2018-06-29T16:18:30.159Z,45.31
2018-06-29T16:19:30.131Z,45.31
2018-06-29T16:20:30.102Z,44.24
2018-06-29T16:21:30.146Z,44.43
2018-06-29T16:22:30.042Z,44.53
2018-06-29T16:23:30.034Z,44.14
2018-06-29T16:24:29.988Z,44.24
2018-06-29T16:25:29.965Z,44.45
2018-06-29T16:26:29.934Z,43.95
2018-06-29T16:27:29.902Z,43.46
2018-06-29T16:28:29.883Z,44.62
2018-06-29T16:29:29.917Z,43.75
2018-06-29T16:30:29.822Z,43.55
2018-06-29T16:31:29.800Z,43.85